Time;durP1;ratioP1;P1;durP2;ratioP2;P2;SDS_P1;SDS_P2;PMS_P1;PMS_P2;Temp;Humidity;BMP_temperature;BMP_pressure;BME280_temperature;BME280_humidity;BME280_pressure;Samples;Min_cycle;Max_cycle;Signal;HPM_P1;HPM_P2
2021/08/13 00:01:54;;;;;;;;;12.67;12.00;;;;;;;;5075497;28;51095;-54
2021/08/13 00:04:19;;;;;;;;;13.67;11.00;;;;;;;;5075409;28;50974;-52
2021/08/13 00:06:45;;;;;;;;;9.33;8.67;;;;;;;;5067288;28;51130;-54
2021/08/13 00:09:10;;;;;;;;;10.33;9.33;;;;;;;;5075118;28;52201;-53
2021/08/13 00:11:39;;;;;;;;;12.00;11.33;;;;;;;;5075444;28;51163;-51
2021/08/13 00:14:05;;;;;;;;;12.00;11.67;;;;;;;;5075097;28;51147;-53
2021/08/13 00:16:31;;;;;;;;;14.00;13.67;;;;;;;;5056853;28;51347;-53
2021/08/13 00:18:56;;;;;;;;;12.00;11.67;;;;;;;;5074947;28;51809;-53
2021/08/13 00:21:21;;;;;;;;;13.67;13.00;;;;;;;;5074606;28;50874;-53
2021/08/13 00:23:46;;;;;;;;;10.33;10.00;;;;;;;;5075346;28;51042;-53
2021/08/13 00:26:12;;;;;;;;;12.33;11.00;;;;;;;;5075838;28;50889;-52
2021/08/13 00:28:37;;;;;;;;;13.67;12.00;;;;;;;;5075072;28;52189;-54
2021/08/13 00:31:02;;;;;;;;;12.00;11.67;;;;;;;;5074822;28;51248;-53
2021/08/13 00:33:27;;;;;;;;;12.67;12.33;;;;;;;;5075251;28;51197;-52
2021/08/13 00:35:53;;;;;;;;;13.33;12.33;;;;;;;;5075395;28;51132;-53
2021/08/13 00:38:18;;;;;;;;;13.00;12.33;;;;;;;;5074607;28;51029;-53
2021/08/13 00:40:43;;;;;;;;;12.00;12.00;;;;;;;;5075019;28;51109;-52
2021/08/13 00:43:08;;;;;;;;;11.67;11.67;;;;;;;;5075014;28;51196;-53
2021/08/13 00:45:33;;;;;;;;;13.00;13.00;;;;;;;;5074944;28;51180;-53
2021/08/13 00:47:58;;;;;;;;;12.33;12.33;;;;;;;;5074753;28;51093;-52
2021/08/13 00:50:24;;;;;;;;;13.67;12.00;;;;;;;;5075069;28;51085;-53
2021/08/13 00:52:49;;;;;;;;;11.33;11.33;;;;;;;;5074942;28;51254;-54
2021/08/13 00:55:15;;;;;;;;;11.00;10.33;;;;;;;;5075054;28;50971;-53
2021/08/13 00:57:40;;;;;;;;;9.67;8.67;;;;;;;;5074184;28;51995;-52
2021/08/13 01:00:06;;;;;;;;;14.00;13.00;;;;;;;;5074091;28;51071;-53
2021/08/13 01:02:31;;;;;;;;;11.00;11.00;;;;;;;;5074456;28;50985;-54
2021/08/13 01:04:56;;;;;;;;;14.00;13.00;;;;;;;;5070849;28;51043;-54
2021/08/13 01:07:22;;;;;;;;;14.00;14.00;;;;;;;;5070193;28;51007;-54
2021/08/13 01:09:47;;;;;;;;;11.00;11.00;;;;;;;;5074927;28;51133;-53
2021/08/13 01:12:20;;;;;;;;;13.33;11.00;;;;;;;;5074420;28;51374;-53
2021/08/13 01:14:46;;;;;;;;;12.67;12.67;;;;;;;;5074406;28;51196;-53
2021/08/13 01:17:12;;;;;;;;;12.00;11.33;;;;;;;;5074161;28;51950;-53
2021/08/13 01:19:47;;;;;;;;;11.67;11.00;;;;;;;;5074718;28;50811;-53
2021/08/13 01:22:22;;;;;;;;;11.00;11.00;;;;;;;;5074263;28;51236;-52
2021/08/13 01:24:47;;;;;;;;;13.33;13.33;;;;;;;;5074595;28;50894;-53
2021/08/13 01:27:15;;;;;;;;;9.33;9.33;;;;;;;;5073950;28;53007;-53
2021/08/13 01:29:40;;;;;;;;;9.33;9.00;;;;;;;;5074061;28;51060;-52
2021/08/13 01:32:12;;;;;;;;;10.67;9.67;;;;;;;;5074193;28;50906;-52
2021/08/13 01:34:48;;;;;;;;;13.00;12.67;;;;;;;;5074587;28;51105;-52
2021/08/13 01:37:14;;;;;;;;;15.00;14.00;;;;;;;;5074198;28;50882;-53
2021/08/13 01:39:40;;;;;;;;;16.67;16.67;;;;;;;;5074006;28;50933;-53
2021/08/13 01:42:07;;;;;;;;;12.33;12.33;;;;;;;;5066078;27;51007;-52
2021/08/13 01:44:33;;;;;;;;;14.50;13.50;;;;;;;;5061109;28;51060;-53
2021/08/13 01:46:59;;;;;;;;;14.00;13.33;;;;;;;;5073741;28;51000;-52
2021/08/13 01:49:25;;;;;;;;;12.67;12.00;;;;;;;;5073789;28;51083;-52
2021/08/13 01:51:51;;;;;;;;;13.75;13.00;;;;;;;;5073820;28;51085;-50
2021/08/13 01:54:16;;;;;;;;;12.00;12.00;;;;;;;;5073977;28;51164;-52
2021/08/13 01:56:43;;;;;;;;;15.00;14.33;;;;;;;;5073806;28;50947;-55
2021/08/13 01:59:08;;;;;;;;;18.25;16.75;;;;;;;;5073673;28;50804;-55
2021/08/13 02:01:35;;;;;;;;;12.00;11.67;;;;;;;;5073595;28;50881;-53
2021/08/13 02:04:01;;;;;;;;;13.00;11.00;;;;;;;;5073871;28;51132;-55
2021/08/13 02:06:28;;;;;;;;;12.00;12.00;;;;;;;;5064159;28;53271;-54
2021/08/13 02:08:54;;;;;;;;;14.00;12.00;;;;;;;;5073708;28;51072;-53
2021/08/13 02:11:19;;;;;;;;;12.67;12.33;;;;;;;;5072348;28;51195;-54
2021/08/13 02:13:45;;;;;;;;;11.67;11.00;;;;;;;;5073432;28;51234;-54
2021/08/13 02:16:12;;;;;;;;;9.33;9.33;;;;;;;;5072874;28;50992;-54
2021/08/13 02:18:39;;;;;;;;;10.00;10.00;;;;;;;;5073509;28;50861;-54
2021/08/13 02:21:10;;;;;;;;;10.50;10.50;;;;;;;;5073681;28;51005;-53
2021/08/13 02:23:35;;;;;;;;;10.67;9.33;;;;;;;;5073713;28;50969;-53
2021/08/13 02:26:01;;;;;;;;;13.50;12.25;;;;;;;;5055008;28;52928;-51
2021/08/13 02:28:26;;;;;;;;;11.00;10.75;;;;;;;;5073470;28;50916;-52
2021/08/13 02:30:51;;;;;;;;;13.50;12.00;;;;;;;;5073187;28;51013;-54
2021/08/13 02:33:16;;;;;;;;;9.33;9.00;;;;;;;;5073561;28;51089;-51
2021/08/13 02:35:44;;;;;;;;;11.33;10.00;;;;;;;;5073014;28;52153;-52
2021/08/13 02:38:21;;;;;;;;;10.00;9.00;;;;;;;;5073135;28;51017;-53
2021/08/13 02:40:53;;;;;;;;;10.33;10.00;;;;;;;;5073244;28;51056;-51
2021/08/13 02:43:34;;;;;;;;;10.67;10.00;;;;;;;;5054885;28;51054;-52
2021/08/13 02:46:00;;;;;;;;;10.67;10.67;;;;;;;;5072715;28;51966;-54
2021/08/13 02:48:26;;;;;;;;;13.00;11.00;;;;;;;;5054734;28;51139;-54
2021/08/13 02:50:52;;;;;;;;;10.00;10.00;;;;;;;;5073217;28;51103;-53
2021/08/13 02:53:21;;;;;;;;;10.00;8.67;;;;;;;;5073182;28;51179;-53
2021/08/13 02:56:02;;;;;;;;;8.67;8.67;;;;;;;;5054865;28;52818;-53
2021/08/13 02:58:32;;;;;;;;;9.33;8.33;;;;;;;;5073154;28;50892;-54
2021/08/13 03:00:57;;;;;;;;;11.00;10.00;;;;;;;;5072762;28;51375;-50
2021/08/13 03:03:23;;;;;;;;;8.00;8.00;;;;;;;;5073337;28;51054;-53
2021/08/13 03:05:49;;;;;;;;;11.67;11.00;;;;;;;;5072476;28;51624;-51
2021/08/13 03:08:21;;;;;;;;;9.33;7.67;;;;;;;;5054925;28;50967;-54
2021/08/13 03:10:47;;;;;;;;;8.67;8.33;;;;;;;;5072719;28;51001;-53
2021/08/13 03:13:15;;;;;;;;;9.00;9.00;;;;;;;;5054632;28;50961;-53
2021/08/13 03:15:40;;;;;;;;;9.67;8.67;;;;;;;;5072014;28;51136;-53
2021/08/13 03:18:06;;;;;;;;;8.67;7.67;;;;;;;;5072723;28;50982;-53
2021/08/13 03:20:32;;;;;;;;;6.67;6.67;;;;;;;;5072604;28;51093;-52
2021/08/13 03:22:58;;;;;;;;;8.00;7.67;;;;;;;;5076217;28;51005;-53
2021/08/13 03:25:24;;;;;;;;;6.33;5.00;;;;;;;;5075760;28;51848;-53
2021/08/13 03:27:49;;;;;;;;;8.33;8.33;;;;;;;;5076372;28;51199;-54
2021/08/13 03:30:14;;;;;;;;;8.00;8.00;;;;;;;;5075939;28;50881;-53
2021/08/13 03:32:40;;;;;;;;;7.67;7.33;;;;;;;;5058262;28;51278;-52
2021/08/13 03:35:06;;;;;;;;;8.67;8.67;;;;;;;;5075817;28;52308;-52
2021/08/13 03:37:31;;;;;;;;;4.33;4.33;;;;;;;;5076072;28;51067;-55
2021/08/13 03:39:57;;;;;;;;;8.00;7.33;;;;;;;;5076112;28;51005;-51
2021/08/13 03:42:22;;;;;;;;;8.00;7.00;;;;;;;;5073307;27;51218;-54
2021/08/13 03:44:47;;;;;;;;;6.67;6.67;;;;;;;;5053716;28;51177;-53
2021/08/13 03:47:12;;;;;;;;;7.33;7.00;;;;;;;;5076248;28;51067;-53
2021/08/13 03:49:38;;;;;;;;;7.00;5.00;;;;;;;;5075955;28;50973;-54
2021/08/13 03:52:03;;;;;;;;;8.33;7.67;;;;;;;;5076037;28;50835;-54
2021/08/13 03:54:28;;;;;;;;;7.33;7.00;;;;;;;;5075455;28;51069;-54
2021/08/13 03:56:53;;;;;;;;;8.00;7.67;;;;;;;;5075923;28;51101;-54
2021/08/13 03:59:18;;;;;;;;;7.00;7.00;;;;;;;;5075330;28;51342;-54
2021/08/13 04:01:44;;;;;;;;;9.00;9.00;;;;;;;;5076240;28;50929;-53
2021/08/13 04:04:09;;;;;;;;;8.33;7.33;;;;;;;;5075415;28;51865;-53
2021/08/13 04:06:34;;;;;;;;;7.67;7.00;;;;;;;;5075729;28;51079;-54
2021/08/13 04:08:59;;;;;;;;;8.00;8.00;;;;;;;;5075700;28;51023;-54
2021/08/13 04:11:24;;;;;;;;;9.33;7.67;;;;;;;;5076179;28;51011;-54
2021/08/13 04:13:50;;;;;;;;;7.33;7.00;;;;;;;;5075052;28;51242;-52
2021/08/13 04:16:15;;;;;;;;;6.00;6.00;;;;;;;;5075098;28;51030;-51
2021/08/13 04:18:40;;;;;;;;;5.67;5.67;;;;;;;;5075546;28;51025;-54
2021/08/13 04:21:06;;;;;;;;;8.33;8.33;;;;;;;;5075947;28;51067;-54
2021/08/13 04:23:31;;;;;;;;;7.00;6.00;;;;;;;;5075162;28;51031;-53
2021/08/13 04:25:56;;;;;;;;;7.00;6.00;;;;;;;;5075492;28;51092;-53
2021/08/13 04:28:21;;;;;;;;;7.67;7.33;;;;;;;;5075460;28;51413;-53
2021/08/13 04:30:47;;;;;;;;;6.00;6.00;;;;;;;;5075205;28;51014;-54
2021/08/13 04:33:12;;;;;;;;;6.67;6.67;;;;;;;;5073957;28;51608;-54
2021/08/13 04:35:37;;;;;;;;;7.00;6.67;;;;;;;;5075368;28;51005;-53
2021/08/13 04:38:03;;;;;;;;;8.67;8.00;;;;;;;;5075271;28;51058;-54
2021/08/13 04:40:28;;;;;;;;;6.67;6.00;;;;;;;;5075415;28;51105;-53
2021/08/13 04:42:54;;;;;;;;;6.33;6.33;;;;;;;;5074833;28;51993;-53
2021/08/13 04:45:19;;;;;;;;;7.00;7.00;;;;;;;;5056417;28;51082;-52
2021/08/13 04:47:44;;;;;;;;;6.00;5.00;;;;;;;;5075049;28;51198;-54
2021/08/13 04:50:09;;;;;;;;;6.00;6.00;;;;;;;;5075543;28;50844;-52
2021/08/13 04:52:42;;;;;;;;;5.00;5.00;;;;;;;;5056477;28;53022;-54
2021/08/13 04:55:07;;;;;;;;;7.00;7.00;;;;;;;;5075120;28;50942;-52
2021/08/13 04:57:33;;;;;;;;;6.00;6.00;;;;;;;;5074750;28;52093;-52
2021/08/13 04:59:58;;;;;;;;;8.00;7.00;;;;;;;;5074893;28;51053;-53
2021/08/13 05:02:23;;;;;;;;;5.00;5.00;;;;;;;;5074544;28;51032;-54
2021/08/13 05:04:56;;;;;;;;;6.00;6.00;;;;;;;;5074398;28;51028;-53
2021/08/13 05:07:21;;;;;;;;;5.00;5.00;;;;;;;;5074874;28;51272;-53
2021/08/13 05:09:46;;;;;;;;;5.00;5.00;;;;;;;;5074940;28;51238;-54
2021/08/13 05:12:12;;;;;;;;;6.33;6.33;;;;;;;;5074484;28;51126;-54
2021/08/13 05:14:37;;;;;;;;;5.00;5.00;;;;;;;;5074090;28;51126;-53
2021/08/13 05:17:02;;;;;;;;;5.33;5.00;;;;;;;;5074643;28;51125;-53
2021/08/13 05:19:27;;;;;;;;;7.33;7.00;;;;;;;;5056788;28;50937;-51
2021/08/13 05:21:52;;;;;;;;;6.33;5.67;;;;;;;;5074096;28;52175;-54
2021/08/13 05:24:18;;;;;;;;;5.67;5.67;;;;;;;;5074209;28;50923;-53
2021/08/13 05:26:43;;;;;;;;;7.00;5.00;;;;;;;;5074346;28;51189;-52
2021/08/13 05:29:08;;;;;;;;;8.00;7.00;;;;;;;;5074113;28;51624;-51
2021/08/13 05:31:33;;;;;;;;;8.33;5.67;;;;;;;;5074022;28;51056;-52
2021/08/13 05:33:58;;;;;;;;;5.00;4.67;;;;;;;;5074344;28;50900;-52
2021/08/13 05:36:24;;;;;;;;;5.00;5.00;;;;;;;;5074291;28;51025;-52
2021/08/13 05:38:49;;;;;;;;;5.00;5.00;;;;;;;;5074164;28;50828;-53
2021/08/13 05:41:14;;;;;;;;;5.67;5.33;;;;;;;;5073841;28;51937;-53
2021/08/13 05:43:39;;;;;;;;;6.00;6.00;;;;;;;;5067979;27;50942;-54
2021/08/13 05:46:04;;;;;;;;;5.00;5.00;;;;;;;;5073283;28;50965;-54
2021/08/13 05:48:30;;;;;;;;;4.67;4.67;;;;;;;;5074304;28;51419;-54
2021/08/13 05:50:56;;;;;;;;;6.00;4.00;;;;;;;;5073682;28;52757;-52
2021/08/13 05:53:21;;;;;;;;;4.33;4.00;;;;;;;;5073852;28;50998;-54
2021/08/13 05:55:46;;;;;;;;;6.00;6.00;;;;;;;;5073770;28;51072;-53
2021/08/13 05:58:11;;;;;;;;;6.00;6.00;;;;;;;;5074028;28;51213;-53
2021/08/13 06:00:36;;;;;;;;;4.00;4.00;;;;;;;;5073441;28;51045;-53
2021/08/13 06:03:03;;;;;;;;;3.00;3.00;;;;;;;;5073615;28;50894;-54
2021/08/13 06:05:29;;;;;;;;;7.33;6.33;;;;;;;;5073349;28;51009;-53
2021/08/13 06:07:54;;;;;;;;;5.33;5.00;;;;;;;;5073897;28;50993;-54
2021/08/13 06:10:20;;;;;;;;;5.33;4.33;;;;;;;;5072928;28;51041;-54
2021/08/13 06:12:45;;;;;;;;;6.67;6.00;;;;;;;;5073938;28;51071;-54
2021/08/13 06:15:12;;;;;;;;;5.00;4.00;;;;;;;;5073434;28;51036;-55
2021/08/13 06:17:38;;;;;;;;;5.33;5.00;;;;;;;;5074004;28;51415;-55
2021/08/13 06:20:04;;;;;;;;;5.00;4.67;;;;;;;;5073148;28;51941;-55
2021/08/13 06:22:29;;;;;;;;;5.33;5.00;;;;;;;;5073450;28;50931;-52
2021/08/13 06:24:54;;;;;;;;;6.00;6.00;;;;;;;;5073586;28;51192;-53
2021/08/13 06:27:19;;;;;;;;;6.67;6.00;;;;;;;;5073588;28;51089;-54
2021/08/13 06:29:45;;;;;;;;;7.00;7.00;;;;;;;;5073025;28;51786;-53
2021/08/13 06:32:10;;;;;;;;;7.67;7.00;;;;;;;;5073117;28;51004;-53
2021/08/13 06:34:35;;;;;;;;;4.67;4.67;;;;;;;;5073502;28;51003;-55
2021/08/13 06:37:00;;;;;;;;;6.00;5.00;;;;;;;;5054882;28;51280;-53
2021/08/13 06:39:27;;;;;;;;;5.33;4.33;;;;;;;;5072785;28;52765;-54
2021/08/13 06:41:52;;;;;;;;;3.67;3.67;;;;;;;;5072825;28;51152;-51
2021/08/13 06:44:17;;;;;;;;;4.67;4.67;;;;;;;;5072807;28;50974;-55
2021/08/13 06:46:42;;;;;;;;;7.33;5.33;;;;;;;;5073353;28;50920;-54
2021/08/13 06:49:07;;;;;;;;;4.67;3.00;;;;;;;;5072661;28;51978;-52
2021/08/13 06:51:33;;;;;;;;;5.00;5.00;;;;;;;;5072602;28;51056;-54
2021/08/13 06:53:58;;;;;;;;;3.00;3.00;;;;;;;;5073039;28;51043;-55
2021/08/13 06:56:23;;;;;;;;;3.67;3.67;;;;;;;;5071988;28;51401;-53
2021/08/13 06:58:48;;;;;;;;;4.00;4.00;;;;;;;;5072541;28;52138;-54
2021/08/13 07:01:13;;;;;;;;;4.33;3.33;;;;;;;;5072159;28;51178;-54
2021/08/13 07:03:39;;;;;;;;;5.00;4.00;;;;;;;;5072872;28;50961;-52
2021/08/13 07:06:04;;;;;;;;;5.00;4.00;;;;;;;;5063597;28;50958;-54
2021/08/13 07:08:29;;;;;;;;;5.33;4.33;;;;;;;;5072469;28;51111;-53
2021/08/13 07:10:54;;;;;;;;;3.00;3.00;;;;;;;;5072629;28;51004;-55
2021/08/13 07:13:20;;;;;;;;;4.00;4.00;;;;;;;;5072393;28;51037;-54
2021/08/13 07:15:45;;;;;;;;;2.33;2.33;;;;;;;;5072293;28;51244;-53
2021/08/13 07:18:10;;;;;;;;;4.67;4.67;;;;;;;;5072654;28;51014;-53
2021/08/13 07:20:35;;;;;;;;;3.00;3.00;;;;;;;;5072386;28;51055;-53
2021/08/13 07:23:00;;;;;;;;;5.00;5.00;;;;;;;;5072588;28;50916;-53
2021/08/13 07:25:26;;;;;;;;;4.00;4.00;;;;;;;;5072647;28;51972;-54
2021/08/13 07:27:52;;;;;;;;;5.00;4.00;;;;;;;;5054432;28;51182;-53
2021/08/13 07:30:17;;;;;;;;;3.00;2.00;;;;;;;;5071405;28;51044;-52
2021/08/13 07:32:45;;;;;;;;;4.33;4.33;;;;;;;;5072727;28;51232;-53
2021/08/13 07:35:10;;;;;;;;;4.00;4.00;;;;;;;;5072199;28;51370;-55
2021/08/13 07:37:35;;;;;;;;;4.67;4.67;;;;;;;;5071977;28;52005;-55
2021/08/13 07:40:00;;;;;;;;;5.00;5.00;;;;;;;;5072006;28;51005;-53
2021/08/13 07:42:26;;;;;;;;;5.33;5.33;;;;;;;;5072215;28;50982;-55
2021/08/13 07:44:52;;;;;;;;;3.00;3.00;;;;;;;;5067764;27;51235;-55
2021/08/13 07:47:17;;;;;;;;;3.33;3.33;;;;;;;;5071919;28;51002;-55
2021/08/13 07:49:42;;;;;;;;;5.67;5.67;;;;;;;;5072095;28;51190;-57
2021/08/13 07:52:07;;;;;;;;;4.33;3.00;;;;;;;;5072066;28;51120;-56
2021/08/13 07:54:33;;;;;;;;;4.00;4.00;;;;;;;;5072059;28;51166;-55
2021/08/13 07:56:58;;;;;;;;;4.67;3.67;;;;;;;;5071892;28;51786;-56
2021/08/13 07:59:23;;;;;;;;;7.33;6.00;;;;;;;;5071444;28;51096;-52
2021/08/13 08:01:48;;;;;;;;;3.00;3.00;;;;;;;;5072271;28;51263;-53
2021/08/13 08:04:13;;;;;;;;;4.00;4.00;;;;;;;;5071958;28;51292;-53
2021/08/13 08:06:39;;;;;;;;;4.00;4.00;;;;;;;;5071470;28;52125;-52
2021/08/13 08:09:04;;;;;;;;;3.67;3.67;;;;;;;;5074808;28;51025;-53
2021/08/13 08:11:29;;;;;;;;;5.00;4.67;;;;;;;;5075533;28;51000;-54
2021/08/13 08:13:54;;;;;;;;;4.00;4.00;;;;;;;;5075050;28;51371;-55
2021/08/13 08:16:19;;;;;;;;;4.67;4.33;;;;;;;;5074963;28;52006;-55
2021/08/13 08:18:45;;;;;;;;;2.67;2.67;;;;;;;;5075012;28;51005;-54
2021/08/13 08:21:10;;;;;;;;;4.33;3.00;;;;;;;;5075623;28;51059;-54
2021/08/13 08:23:35;;;;;;;;;3.00;3.00;;;;;;;;5075359;28;51037;-54
2021/08/13 08:26:00;;;;;;;;;4.33;4.33;;;;;;;;5075169;28;52143;-55
2021/08/13 08:28:26;;;;;;;;;5.00;4.33;;;;;;;;5056574;28;51129;-54
2021/08/13 08:30:51;;;;;;;;;3.33;3.33;;;;;;;;5074393;28;51191;-55
2021/08/13 08:33:16;;;;;;;;;3.00;3.00;;;;;;;;5074938;28;51078;-54
2021/08/13 08:35:41;;;;;;;;;4.00;4.00;;;;;;;;5056113;28;53070;-55
2021/08/13 08:38:08;;;;;;;;;4.00;3.00;;;;;;;;5074109;28;51156;-55
2021/08/13 08:40:35;;;;;;;;;5.00;4.50;;;;;;;;5075020;28;50843;-55
2021/08/13 08:43:02;;;;;;;;;4.00;4.00;;;;;;;;5074691;28;51093;-54
2021/08/13 08:45:30;;;;;;;;;4.00;3.67;;;;;;;;5055906;28;53458;-55
2021/08/13 08:47:59;;;;;;;;;3.75;3.75;;;;;;;;5074468;28;51049;-54
2021/08/13 08:50:25;;;;;;;;;3.75;3.75;;;;;;;;5074951;28;50944;-53
2021/08/13 08:52:51;;;;;;;;;3.67;3.67;;;;;;;;5074364;28;51324;-55
2021/08/13 08:55:16;;;;;;;;;5.50;4.75;;;;;;;;5055685;28;52958;-54
2021/08/13 08:57:42;;;;;;;;;5.00;5.00;;;;;;;;5074053;28;50977;-54
2021/08/13 09:00:08;;;;;;;;;5.00;4.50;;;;;;;;5074315;28;51125;-54
2021/08/13 09:02:33;;;;;;;;;4.25;4.25;;;;;;;;5074625;28;51230;-55
2021/08/13 09:05:02;;;;;;;;;6.00;5.00;;;;;;;;5073929;28;51940;-56
2021/08/13 09:07:28;;;;;;;;;3.75;3.75;;;;;;;;5074118;28;50999;-55
2021/08/13 09:09:53;;;;;;;;;3.50;3.50;;;;;;;;5073808;28;50961;-54
2021/08/13 09:12:18;;;;;;;;;4.50;3.75;;;;;;;;5073763;28;50878;-55
2021/08/13 09:14:44;;;;;;;;;4.00;4.00;;;;;;;;5055030;28;54118;-53
2021/08/13 09:17:09;;;;;;;;;3.50;3.50;;;;;;;;5073527;28;50949;-54
2021/08/13 09:19:41;;;;;;;;;3.50;3.50;;;;;;;;5073034;28;51018;-55
2021/08/13 09:22:11;;;;;;;;;3.67;3.33;;;;;;;;5074053;28;51362;-55
2021/08/13 09:24:38;;;;;;;;;5.25;5.25;;;;;;;;5073917;28;52072;-55
2021/08/13 09:27:22;;;;;;;;;4.00;3.50;;;;;;;;5073547;28;51106;-55
2021/08/13 09:30:05;;;;;;;;;4.75;4.75;;;;;;;;5073043;28;51067;-54
2021/08/13 09:32:30;;;;;;;;;4.50;4.50;;;;;;;;5073847;28;50902;-55
2021/08/13 09:34:56;;;;;;;;;6.25;6.25;;;;;;;;5054709;28;52048;-55
2021/08/13 09:37:21;;;;;;;;;4.50;3.75;;;;;;;;5073433;28;50947;-55
2021/08/13 09:39:51;;;;;;;;;4.00;4.00;;;;;;;;5073443;28;50889;-53
2021/08/13 09:42:17;;;;;;;;;3.75;3.75;;;;;;;;5035318;28;51061;-56
2021/08/13 09:44:42;;;;;;;;;3.75;3.75;;;;;;;;5068092;27;51000;-55
2021/08/13 09:47:08;;;;;;;;;6.00;6.00;;;;;;;;5066008;28;51315;-54
2021/08/13 09:49:34;;;;;;;;;5.00;4.25;;;;;;;;5073314;28;51131;-55
2021/08/13 09:52:16;;;;;;;;;6.00;5.00;;;;;;;;5073267;28;51366;-55
2021/08/13 09:54:42;;;;;;;;;4.00;4.00;;;;;;;;5072261;28;51048;-55
2021/08/13 09:57:12;;;;;;;;;4.50;4.50;;;;;;;;5072461;28;50912;-54
2021/08/13 09:59:38;;;;;;;;;4.00;3.25;;;;;;;;5072533;28;51229;-54
2021/08/13 10:02:10;;;;;;;;;6.00;5.50;;;;;;;;5072676;28;51212;-54
2021/08/13 10:04:36;;;;;;;;;5.00;5.00;;;;;;;;5072228;28;53203;-53
2021/08/13 10:07:01;;;;;;;;;6.00;6.00;;;;;;;;5072560;28;50868;-55
2021/08/13 10:09:27;;;;;;;;;5.00;5.00;;;;;;;;5072894;28;51358;-55
2021/08/13 10:12:01;;;;;;;;;4.75;4.75;;;;;;;;5073020;28;50950;-54
2021/08/13 10:14:36;;;;;;;;;5.75;5.50;;;;;;;;5069059;28;51840;-56
2021/08/13 10:17:06;;;;;;;;;5.50;5.00;;;;;;;;5072264;28;50976;-56
2021/08/13 10:19:31;;;;;;;;;5.25;5.25;;;;;;;;5072852;27;50890;-56
2021/08/13 10:21:57;;;;;;;;;4.50;4.50;;;;;;;;5072938;28;51003;-56
2021/08/13 10:24:23;;;;;;;;;6.75;6.75;;;;;;;;5072583;28;50942;-57
2021/08/13 10:26:48;;;;;;;;;5.50;5.50;;;;;;;;5054148;28;51109;-55
2021/08/13 10:29:13;;;;;;;;;6.25;5.50;;;;;;;;5071698;28;50923;-55
2021/08/13 10:31:40;;;;;;;;;8.50;7.50;;;;;;;;5070909;28;50853;-55
2021/08/13 10:34:05;;;;;;;;;5.50;5.50;;;;;;;;5072264;28;51061;-57
2021/08/13 10:36:30;;;;;;;;;6.00;6.00;;;;;;;;5071831;28;51279;-56
2021/08/13 10:38:56;;;;;;;;;5.75;5.75;;;;;;;;5072321;28;50841;-56
2021/08/13 10:41:23;;;;;;;;;7.25;6.50;;;;;;;;5072282;28;51348;-55
2021/08/13 10:43:51;;;;;;;;;8.00;7.50;;;;;;;;5071733;28;52142;-55
2021/08/13 10:46:17;;;;;;;;;7.75;7.00;;;;;;;;5071845;28;51107;-54
2021/08/13 10:48:45;;;;;;;;;6.50;6.50;;;;;;;;5072256;28;50890;-58
2021/08/13 10:51:10;;;;;;;;;6.00;6.00;;;;;;;;5071832;28;50927;-55
2021/08/13 10:53:37;;;;;;;;;8.00;8.00;;;;;;;;5071257;28;50894;-56
2021/08/13 10:56:03;;;;;;;;;6.00;6.00;;;;;;;;5072133;28;51025;-55
2021/08/13 10:58:34;;;;;;;;;9.50;9.50;;;;;;;;5053921;28;50993;-54
2021/08/13 11:01:06;;;;;;;;;8.00;8.00;;;;;;;;5071922;28;50844;-56
2021/08/13 11:03:31;;;;;;;;;7.00;7.00;;;;;;;;5071842;28;51895;-55
2021/08/13 11:05:58;;;;;;;;;7.00;7.00;;;;;;;;5071594;28;51084;-55
2021/08/13 11:08:45;;;;;;;;;7.50;7.50;;;;;;;;5072467;28;51003;-55
2021/08/13 11:11:11;;;;;;;;;8.25;7.25;;;;;;;;5072042;28;50919;-56
2021/08/13 11:13:37;;;;;;;;;8.50;7.75;;;;;;;;5071515;28;51867;-56
2021/08/13 11:16:02;;;;;;;;;8.50;8.50;;;;;;;;5071638;28;50904;-55
2021/08/13 11:18:36;;;;;;;;;9.00;9.00;;;;;;;;5053715;28;51248;-56
2021/08/13 11:21:03;;;;;;;;;8.00;8.00;;;;;;;;5072129;28;50877;-55
2021/08/13 11:23:29;;;;;;;;;9.00;8.00;;;;;;;;5071262;28;51729;-55
2021/08/13 11:25:56;;;;;;;;;10.50;10.00;;;;;;;;5071463;28;50973;-56
2021/08/13 11:28:23;;;;;;;;;10.50;10.50;;;;;;;;5071320;28;51210;-55
2021/08/13 11:30:49;;;;;;;;;16.00;15.75;;;;;;;;5071396;28;51002;-57
2021/08/13 11:33:26;;;;;;;;;8.00;8.00;;;;;;;;5071218;28;51225;-55
2021/08/13 11:35:56;;;;;;;;;8.00;8.00;;;;;;;;5071480;28;51060;-54
2021/08/13 11:38:40;;;;;;;;;10.75;10.50;;;;;;;;5070774;28;51075;-56
2021/08/13 11:41:21;;;;;;;;;9.00;9.00;;;;;;;;5070981;28;51129;-56
2021/08/13 11:44:12;;;;;;;;;10.25;9.75;;;;;;;;5073606;28;51909;-56
2021/08/13 11:46:43;;;;;;;;;10.00;10.00;;;;;;;;5054384;27;50927;-56
2021/08/13 11:49:09;;;;;;;;;11.00;10.25;;;;;;;;5067638;28;51060;-54
2021/08/13 11:51:36;;;;;;;;;9.50;9.50;;;;;;;;5074958;28;51462;-58
2021/08/13 11:54:02;;;;;;;;;9.00;9.00;;;;;;;;5074213;28;51848;-57
2021/08/13 11:56:29;;;;;;;;;7.75;7.75;;;;;;;;5074032;28;51167;-56
2021/08/13 11:59:05;;;;;;;;;9.25;8.75;;;;;;;;5055552;28;50921;-56
2021/08/13 12:01:50;;;;;;;;;8.75;8.50;;;;;;;;5074220;28;50909;-55
2021/08/13 12:04:19;;;;;;;;;8.25;7.75;;;;;;;;5074439;28;51378;-54
2021/08/13 12:06:58;;;;;;;;;13.25;11.25;;;;;;;;5065558;28;51065;-54
2021/08/13 12:09:29;;;;;;;;;10.00;10.00;;;;;;;;5074460;28;51062;-54
2021/08/13 12:11:55;;;;;;;;;4.25;4.00;;;;;;;;5074765;28;51387;-53
2021/08/13 12:14:20;;;;;;;;;6.75;6.75;;;;;;;;5073981;28;51017;-53
2021/08/13 12:16:50;;;;;;;;;6.75;6.75;;;;;;;;5074658;28;51163;-55
2021/08/13 12:19:16;;;;;;;;;9.75;9.50;;;;;;;;5074792;28;51001;-54
2021/08/13 12:22:11;;;;;;;;;8.00;8.00;;;;;;;;5074379;28;50912;-53
2021/08/13 12:24:37;;;;;;;;;8.75;8.25;;;;;;;;5052099;28;51232;-53
2021/08/13 12:27:06;;;;;;;;;9.75;9.75;;;;;;;;5073758;28;51203;-55
2021/08/13 12:29:32;;;;;;;;;10.25;10.00;;;;;;;;5062619;28;51162;-54
2021/08/13 12:31:58;;;;;;;;;8.00;8.00;;;;;;;;5072184;28;51385;-55
2021/08/13 12:34:24;;;;;;;;;12.00;10.00;;;;;;;;5074031;28;51912;-54
2021/08/13 12:37:03;;;;;;;;;10.00;10.00;;;;;;;;5055508;28;51123;-54
2021/08/13 12:39:29;;;;;;;;;9.00;8.33;;;;;;;;5055663;28;50921;-53
2021/08/13 12:41:55;;;;;;;;;11.00;9.00;;;;;;;;5073975;28;51219;-54
2021/08/13 12:44:20;;;;;;;;;9.00;9.00;;;;;;;;5073322;28;51746;-55
2021/08/13 12:46:46;;;;;;;;;11.00;11.00;;;;;;;;5073608;28;50936;-54
2021/08/13 12:49:12;;;;;;;;;9.00;8.67;;;;;;;;5073496;28;51283;-55
2021/08/13 12:51:38;;;;;;;;;6.00;6.00;;;;;;;;5073263;28;51081;-55
2021/08/13 12:54:03;;;;;;;;;11.00;10.67;;;;;;;;5072555;28;51797;-55
2021/08/13 12:56:28;;;;;;;;;9.00;9.00;;;;;;;;5073288;28;51125;-55
2021/08/13 12:59:08;;;;;;;;;9.33;9.00;;;;;;;;5073036;28;51011;-53
2021/08/13 13:01:33;;;;;;;;;10.67;10.67;;;;;;;;5074063;27;51174;-54
2021/08/13 13:04:06;;;;;;;;;11.00;10.33;;;;;;;;5054789;28;52252;-54
2021/08/13 13:06:32;;;;;;;;;10.00;10.00;;;;;;;;5054949;28;51192;-53
2021/08/13 13:08:57;;;;;;;;;10.33;10.33;;;;;;;;5055054;28;51204;-52
2021/08/13 13:11:27;;;;;;;;;10.75;10.75;;;;;;;;5074115;28;51188;-54
2021/08/13 13:13:53;;;;;;;;;12.00;11.75;;;;;;;;5072690;28;51238;-53
2021/08/13 13:16:19;;;;;;;;;9.00;9.00;;;;;;;;5073444;28;50959;-54
2021/08/13 13:18:44;;;;;;;;;8.00;8.00;;;;;;;;5073333;28;51071;-54
2021/08/13 13:21:19;;;;;;;;;7.33;7.33;;;;;;;;5073602;28;50923;-55
2021/08/13 13:23:44;;;;;;;;;9.00;9.00;;;;;;;;5072962;28;52500;-55
2021/08/13 13:26:11;;;;;;;;;10.33;9.67;;;;;;;;5073175;28;51105;-54
2021/08/13 13:28:36;;;;;;;;;8.33;7.67;;;;;;;;5072884;27;50943;-53
2021/08/13 13:31:15;;;;;;;;;12.25;11.75;;;;;;;;5072617;28;51213;-54
2021/08/13 13:33:41;;;;;;;;;10.00;10.00;;;;;;;;5073273;28;50987;-57
2021/08/13 13:36:06;;;;;;;;;10.33;10.00;;;;;;;;5072952;28;50972;-52
2021/08/13 13:38:33;;;;;;;;;10.00;9.33;;;;;;;;5073301;28;51048;-53
2021/08/13 13:40:58;;;;;;;;;10.67;10.67;;;;;;;;5073013;28;50927;-56
2021/08/13 13:43:24;;;;;;;;;9.33;9.33;;;;;;;;5072882;28;51019;-55
2021/08/13 13:45:53;;;;;;;;;9.67;9.67;;;;;;;;5072671;28;51312;-55
2021/08/13 13:48:18;;;;;;;;;8.33;8.00;;;;;;;;5067546;27;51231;-53
2021/08/13 13:50:45;;;;;;;;;7.67;7.67;;;;;;;;5072632;28;51248;-53
2021/08/13 13:53:10;;;;;;;;;9.33;9.33;;;;;;;;5072333;28;52371;-56
2021/08/13 13:55:35;;;;;;;;;9.67;8.33;;;;;;;;5072855;28;51045;-50
2021/08/13 13:58:01;;;;;;;;;10.67;9.33;;;;;;;;5072476;28;51028;-54
2021/08/13 14:00:26;;;;;;;;;9.50;9.50;;;;;;;;5072233;28;50913;-54
2021/08/13 14:02:52;;;;;;;;;7.00;7.00;;;;;;;;5072560;28;51069;-54
2021/08/13 14:05:17;;;;;;;;;11.33;11.00;;;;;;;;5071863;28;51111;-54
2021/08/13 14:07:45;;;;;;;;;10.00;9.00;;;;;;;;5072463;28;51002;-54
2021/08/13 14:10:11;;;;;;;;;10.00;9.00;;;;;;;;5072338;28;51165;-53
2021/08/13 14:12:37;;;;;;;;;10.00;10.00;;;;;;;;5071634;28;52050;-53
2021/08/13 14:15:03;;;;;;;;;9.33;9.00;;;;;;;;5071248;28;51402;-54
2021/08/13 14:17:28;;;;;;;;;7.67;7.67;;;;;;;;5071987;28;51218;-53
2021/08/13 14:19:53;;;;;;;;;8.00;8.00;;;;;;;;5072637;28;51018;-55
2021/08/13 14:22:19;;;;;;;;;7.33;7.33;;;;;;;;5072038;28;52196;-55
2021/08/13 14:24:44;;;;;;;;;8.33;8.00;;;;;;;;5072244;28;50915;-54
2021/08/13 14:27:09;;;;;;;;;11.00;11.00;;;;;;;;5072418;28;51075;-54
2021/08/13 14:29:34;;;;;;;;;8.33;8.33;;;;;;;;5072056;28;51319;-55
2021/08/13 14:31:59;;;;;;;;;6.00;6.00;;;;;;;;5071919;28;52218;-54
2021/08/13 14:34:25;;;;;;;;;8.00;8.00;;;;;;;;5072044;28;50957;-54